createdAt,value
2023-03-17T00:00:08.376Z,4.90
2023-03-17T00:01:14.582Z,4.90
2023-03-17T00:02:17.002Z,4.90
2023-03-17T00:03:25.776Z,4.90
2023-03-17T00:04:28.062Z,4.90
2023-03-17T00:05:33.349Z,4.90
2023-03-17T00:06:37.040Z,4.90
2023-03-17T00:07:39.286Z,4.90
2023-03-17T00:08:42.026Z,4.80
2023-03-17T00:09:44.943Z,4.90
2023-03-17T00:10:47.596Z,4.80
2023-03-17T00:11:50.397Z,4.90
2023-03-17T00:12:55.148Z,4.80
2023-03-17T00:13:57.760Z,4.90
2023-03-17T00:14:59.965Z,4.80
2023-03-17T00:16:05.284Z,4.80
2023-03-17T00:17:11.992Z,4.80
2023-03-17T00:18:17.504Z,4.80
2023-03-17T00:19:31.358Z,4.80
2023-03-17T00:20:33.737Z,4.80
2023-03-17T00:21:36.094Z,4.80
2023-03-17T00:22:38.568Z,4.80
2023-03-17T00:23:44.786Z,4.80
2023-03-17T00:24:47.123Z,4.80
2023-03-17T00:25:49.937Z,4.70
2023-03-17T00:26:52.309Z,4.80
2023-03-17T00:27:55.853Z,4.80
2023-03-17T00:28:58.780Z,4.80
2023-03-17T00:30:01.226Z,4.80
2023-03-17T00:31:15.105Z,4.80
2023-03-17T00:32:20.539Z,4.80
2023-03-17T00:33:28.850Z,4.90
2023-03-17T00:34:31.235Z,4.80
2023-03-17T00:35:33.591Z,4.80
2023-03-17T00:36:36.099Z,4.80
2023-03-17T00:37:39.596Z,4.80
2023-03-17T00:38:43.760Z,4.80
2023-03-17T00:39:46.045Z,4.80
2023-03-17T00:40:48.959Z,4.80
2023-03-17T00:41:51.209Z,4.90
2023-03-17T00:42:53.755Z,4.90
2023-03-17T00:43:56.124Z,4.90
2023-03-17T00:44:58.376Z,4.80
2023-03-17T00:46:00.846Z,4.80
2023-03-17T00:47:03.348Z,4.80
2023-03-17T00:48:17.652Z,4.80
2023-03-17T00:49:22.700Z,4.80
2023-03-17T00:50:28.688Z,4.80
2023-03-17T00:51:31.178Z,4.90
2023-03-17T00:52:34.158Z,4.90
2023-03-17T00:53:36.511Z,4.90
2023-03-17T00:54:38.767Z,4.90
2023-03-17T00:55:42.503Z,4.90
2023-03-17T00:56:46.163Z,4.90
2023-03-17T00:57:49.867Z,4.90
2023-03-17T00:58:52.839Z,4.90
2023-03-17T00:59:55.122Z,4.90
2023-03-17T01:00:57.586Z,4.90
2023-03-17T01:02:00.414Z,4.90
2023-03-17T01:03:03.732Z,4.90
2023-03-17T01:04:05.950Z,4.90
2023-03-17T01:05:08.329Z,4.90
2023-03-17T01:06:13.790Z,4.90
2023-03-17T01:07:17.081Z,4.90
2023-03-17T01:08:22.703Z,4.90
2023-03-17T01:09:27.189Z,4.90
2023-03-17T01:10:30.111Z,4.80
2023-03-17T01:11:32.816Z,4.90
2023-03-17T01:12:35.106Z,4.90
2023-03-17T01:13:37.416Z,4.90
2023-03-17T01:14:40.985Z,4.90
2023-03-17T01:15:47.374Z,4.80
2023-03-17T01:16:50.579Z,4.90
2023-03-17T01:17:52.957Z,4.80
2023-03-17T01:18:55.242Z,4.80
2023-03-17T01:19:58.534Z,4.80
2023-03-17T01:21:00.821Z,4.80
2023-03-17T01:22:03.254Z,4.80
2023-03-17T01:23:06.093Z,4.80
2023-03-17T01:24:08.511Z,4.70
2023-03-17T01:25:12.079Z,4.70
2023-03-17T01:26:14.447Z,4.70
2023-03-17T01:27:18.806Z,4.70
2023-03-17T01:28:21.370Z,4.70
2023-03-17T01:29:24.545Z,4.70
2023-03-17T01:30:38.646Z,4.70
2023-03-17T01:31:41.260Z,4.70
2023-03-17T01:32:45.542Z,4.60
2023-03-17T01:33:47.869Z,4.60
2023-03-17T01:34:50.091Z,4.60
2023-03-17T01:35:52.778Z,4.60
2023-03-17T01:36:55.041Z,4.60
2023-03-17T01:37:59.063Z,4.60
2023-03-17T01:39:01.706Z,4.50
2023-03-17T01:40:05.427Z,4.50
2023-03-17T01:41:07.797Z,4.50
2023-03-17T01:42:10.472Z,4.50
2023-03-17T01:43:12.725Z,4.50
2023-03-17T01:44:17.260Z,4.50
2023-03-17T01:45:57.657Z,4.50
2023-03-17T01:47:01.177Z,4.50
2023-03-17T01:48:03.549Z,4.50
2023-03-17T01:49:19.686Z,4.40
2023-03-17T01:50:22.163Z,4.40
2023-03-17T01:51:33.393Z,4.40
2023-03-17T01:52:38.234Z,4.40
2023-03-17T01:53:41.158Z,4.30
2023-03-17T01:54:55.568Z,4.30
2023-03-17T01:55:58.039Z,4.30
2023-03-17T01:57:10.556Z,4.30
2023-03-17T01:58:15.150Z,4.30
2023-03-17T01:59:22.565Z,4.30
2023-03-17T02:00:26.621Z,4.20
2023-03-17T02:01:35.366Z,4.20
2023-03-17T02:02:41.934Z,4.30
2023-03-17T02:03:45.198Z,4.30
2023-03-17T02:04:47.840Z,4.20
2023-03-17T02:05:52.547Z,4.20
2023-03-17T02:06:58.378Z,4.20
2023-03-17T02:08:01.081Z,4.20
2023-03-17T02:09:04.196Z,4.20
2023-03-17T02:10:08.973Z,4.20
2023-03-17T02:11:13.376Z,4.20
2023-03-17T02:12:15.680Z,4.20
2023-03-17T02:13:18.439Z,4.20
2023-03-17T02:14:20.763Z,4.30
2023-03-17T02:15:24.669Z,4.20
2023-03-17T02:16:27.754Z,4.20
2023-03-17T02:17:30.110Z,4.20
2023-03-17T02:18:32.617Z,4.30
2023-03-17T02:19:35.488Z,4.20
2023-03-17T02:20:38.316Z,4.30
2023-03-17T02:21:47.693Z,4.30
2023-03-17T02:22:53.022Z,4.30
2023-03-17T02:23:56.816Z,4.30
2023-03-17T02:25:00.621Z,4.20
2023-03-17T02:26:04.116Z,4.20
2023-03-17T02:27:23.177Z,4.20
2023-03-17T02:28:30.469Z,4.20
2023-03-17T02:29:35.046Z,4.20
2023-03-17T02:30:37.616Z,4.20
2023-03-17T02:31:40.976Z,4.20
2023-03-17T02:32:43.564Z,4.20
2023-03-17T02:33:46.086Z,4.20
2023-03-17T02:34:49.587Z,4.20
2023-03-17T02:35:51.999Z,4.20
2023-03-17T02:36:54.283Z,4.30
2023-03-17T02:37:56.597Z,4.30
2023-03-17T02:38:59.634Z,4.30
2023-03-17T02:40:07.782Z,4.30
2023-03-17T02:41:10.672Z,4.30
2023-03-17T02:42:14.032Z,4.30
2023-03-17T02:43:16.748Z,4.30
2023-03-17T02:44:19.009Z,4.30
2023-03-17T02:45:21.375Z,4.30
2023-03-17T02:46:23.681Z,4.30
2023-03-17T02:47:27.722Z,4.30
2023-03-17T02:48:30.005Z,4.30
2023-03-17T02:49:32.812Z,4.30
2023-03-17T02:50:35.426Z,4.30
2023-03-17T02:51:38.311Z,4.40
2023-03-17T02:52:40.560Z,4.40
2023-03-17T02:53:42.836Z,4.40
2023-03-17T02:54:45.198Z,4.30
2023-03-17T02:55:47.458Z,4.30
2023-03-17T02:56:49.854Z,4.40
2023-03-17T02:57:52.188Z,4.40
2023-03-17T02:58:54.445Z,4.40
2023-03-17T02:59:56.718Z,4.40
2023-03-17T03:00:59.009Z,4.40
2023-03-17T03:02:01.453Z,4.40
2023-03-17T03:03:03.829Z,4.40
2023-03-17T03:04:07.222Z,4.40
2023-03-17T03:05:10.844Z,4.40
2023-03-17T03:06:13.312Z,4.40
2023-03-17T03:07:16.243Z,4.40
2023-03-17T03:08:18.534Z,4.40
2023-03-17T03:09:21.481Z,4.40
2023-03-17T03:10:25.539Z,4.40
2023-03-17T03:11:29.383Z,4.40
2023-03-17T03:12:32.016Z,4.40
2023-03-17T03:13:34.338Z,4.50
2023-03-17T03:14:36.790Z,4.50
2023-03-17T03:15:41.783Z,4.40
2023-03-17T03:16:44.898Z,4.40
2023-03-17T03:17:47.144Z,4.40
2023-03-17T03:18:49.406Z,4.40
2023-03-17T03:19:51.669Z,4.40
2023-03-17T03:20:54.192Z,4.40
2023-03-17T03:21:56.526Z,4.40
2023-03-17T03:22:58.832Z,4.40
2023-03-17T03:24:01.316Z,4.40
2023-03-17T03:25:03.727Z,4.40
2023-03-17T03:26:06.061Z,4.50
2023-03-17T03:27:08.513Z,4.40
2023-03-17T03:28:10.820Z,4.40
2023-03-17T03:29:13.282Z,4.40
2023-03-17T03:30:15.687Z,4.40
2023-03-17T03:31:18.112Z,4.40
2023-03-17T03:32:20.574Z,4.40
2023-03-17T03:33:22.940Z,4.40
2023-03-17T03:34:25.296Z,4.40
2023-03-17T03:35:29.586Z,4.40
2023-03-17T03:36:32.429Z,4.40
2023-03-17T03:37:34.837Z,4.40
2023-03-17T03:38:37.343Z,4.40
2023-03-17T03:39:39.667Z,4.40
2023-03-17T03:40:42.377Z,4.40
2023-03-17T03:41:44.738Z,4.40
2023-03-17T03:42:47.194Z,4.40
2023-03-17T03:43:49.530Z,4.40
2023-03-17T03:44:52.624Z,4.40
2023-03-17T03:45:55.018Z,4.40
2023-03-17T03:46:57.358Z,4.30
2023-03-17T03:47:59.940Z,4.30
2023-03-17T03:49:02.308Z,4.30
2023-03-17T03:50:05.057Z,4.30
2023-03-17T03:51:07.332Z,4.30
2023-03-17T03:52:09.743Z,4.30
2023-03-17T03:53:12.020Z,4.30
2023-03-17T03:54:14.356Z,4.30
2023-03-17T03:55:17.287Z,4.30
2023-03-17T03:56:19.606Z,4.30
2023-03-17T03:57:22.018Z,4.30
2023-03-17T03:58:24.528Z,4.30
2023-03-17T03:59:26.814Z,4.30
2023-03-17T04:00:29.526Z,4.30
2023-03-17T04:01:31.996Z,4.30
2023-03-17T04:02:34.293Z,4.30
2023-03-17T04:03:37.685Z,4.30
2023-03-17T04:04:39.994Z,4.30
2023-03-17T04:05:42.299Z,4.30
2023-03-17T04:06:44.781Z,4.20
2023-03-17T04:07:47.968Z,4.30
2023-03-17T04:08:50.284Z,4.20
2023-03-17T04:09:52.629Z,4.20
2023-03-17T04:10:55.031Z,4.20
2023-03-17T04:11:57.308Z,4.20
2023-03-17T04:12:59.591Z,4.20
2023-03-17T04:14:02.171Z,4.30
2023-03-17T04:15:05.700Z,4.20
2023-03-17T04:16:08.351Z,4.20
2023-03-17T04:17:11.592Z,4.30
2023-03-17T04:18:13.940Z,4.20
2023-03-17T04:19:16.498Z,4.20
2023-03-17T04:20:19.000Z,4.20
2023-03-17T04:21:21.657Z,4.20
2023-03-17T04:22:24.537Z,4.20
2023-03-17T04:23:27.728Z,4.30
2023-03-17T04:24:30.260Z,4.30
2023-03-17T04:25:32.716Z,4.30
2023-03-17T04:26:35.256Z,4.30
2023-03-17T04:27:38.173Z,4.30
2023-03-17T04:28:40.724Z,4.30
2023-03-17T04:29:43.979Z,4.20
2023-03-17T04:30:46.463Z,4.20
2023-03-17T04:31:48.893Z,4.20
2023-03-17T04:32:51.335Z,4.20
2023-03-17T04:33:53.645Z,4.20
2023-03-17T04:34:56.127Z,4.20
2023-03-17T04:35:58.650Z,4.20
2023-03-17T04:37:01.505Z,4.20
2023-03-17T04:38:04.140Z,4.20
2023-03-17T04:39:07.275Z,4.20
2023-03-17T04:40:11.464Z,4.20
2023-03-17T04:41:14.670Z,4.30
2023-03-17T04:42:17.620Z,4.30
2023-03-17T04:43:19.908Z,4.30
2023-03-17T04:44:22.251Z,4.30
2023-03-17T04:45:24.606Z,4.30
2023-03-17T04:46:27.493Z,4.30
2023-03-17T04:47:29.896Z,4.30
2023-03-17T04:48:32.138Z,4.30
2023-03-17T04:49:34.633Z,4.20
2023-03-17T04:50:36.942Z,4.20
2023-03-17T04:51:39.317Z,4.20
2023-03-17T04:52:42.166Z,4.20
2023-03-17T04:53:44.895Z,4.20
2023-03-17T04:54:47.269Z,4.20
2023-03-17T04:55:49.545Z,4.20
2023-03-17T04:56:52.290Z,4.20
2023-03-17T04:57:54.596Z,4.20
2023-03-17T04:58:56.857Z,4.20
2023-03-17T04:59:59.254Z,4.20
2023-03-17T05:01:02.554Z,4.20
2023-03-17T05:02:05.045Z,4.20
2023-03-17T05:03:20.215Z,4.20
2023-03-17T05:04:31.927Z,4.30
2023-03-17T05:05:35.147Z,4.30
2023-03-17T05:06:37.437Z,4.30
2023-03-17T05:07:40.162Z,4.30
2023-03-17T05:08:46.199Z,4.30
2023-03-17T05:09:48.645Z,4.30
2023-03-17T05:10:51.471Z,4.30
2023-03-17T05:11:53.799Z,4.30
2023-03-17T05:12:56.188Z,4.30
2023-03-17T05:13:58.459Z,4.20
2023-03-17T05:15:00.760Z,4.20
2023-03-17T05:16:03.538Z,4.20
2023-03-17T05:17:05.842Z,4.20
2023-03-17T05:18:08.402Z,4.20
2023-03-17T05:19:11.130Z,4.20
2023-03-17T05:20:14.181Z,4.30
2023-03-17T05:21:16.440Z,4.20
2023-03-17T05:22:18.798Z,4.20
2023-03-17T05:23:22.578Z,4.30
2023-03-17T05:24:25.354Z,4.30
2023-03-17T05:25:27.819Z,4.30
2023-03-17T05:26:30.100Z,4.20
2023-03-17T05:27:32.999Z,4.30
2023-03-17T05:28:35.401Z,4.30
2023-03-17T05:29:38.133Z,4.30
2023-03-17T05:30:41.103Z,4.30
2023-03-17T05:31:43.439Z,4.30
2023-03-17T05:32:46.933Z,4.30
2023-03-17T05:33:49.589Z,4.30
2023-03-17T05:34:52.172Z,4.30
2023-03-17T05:35:54.484Z,4.30
2023-03-17T05:36:57.116Z,4.30
2023-03-17T05:37:59.656Z,4.30
2023-03-17T05:39:02.092Z,4.30
2023-03-17T05:40:04.769Z,4.30
2023-03-17T05:41:07.130Z,4.30
2023-03-17T05:42:09.390Z,4.30
2023-03-17T05:43:12.070Z,4.30
2023-03-17T05:44:14.662Z,4.30
2023-03-17T05:45:17.558Z,4.30
2023-03-17T05:46:20.541Z,4.30
2023-03-17T05:47:23.175Z,4.30
2023-03-17T05:48:26.526Z,4.30
2023-03-17T05:49:29.066Z,4.40
2023-03-17T05:50:31.899Z,4.40
2023-03-17T05:51:36.778Z,4.40
2023-03-17T05:52:39.250Z,4.40
2023-03-17T05:53:41.858Z,4.40
2023-03-17T05:54:44.969Z,4.40
2023-03-17T05:55:47.850Z,4.40
2023-03-17T05:56:50.692Z,4.40
2023-03-17T05:57:53.050Z,4.40
2023-03-17T05:58:55.661Z,4.50
2023-03-17T05:59:57.933Z,4.50
2023-03-17T06:01:00.259Z,4.50
2023-03-17T06:02:03.169Z,4.50
2023-03-17T06:03:05.624Z,4.50
2023-03-17T06:04:08.557Z,4.40
2023-03-17T06:05:10.892Z,4.50
2023-03-17T06:06:13.167Z,4.50
2023-03-17T06:07:15.963Z,4.50
2023-03-17T06:08:19.614Z,4.50
2023-03-17T06:09:23.884Z,4.50
2023-03-17T06:10:26.396Z,4.50
2023-03-17T06:11:28.793Z,4.60
2023-03-17T06:12:31.275Z,4.60
2023-03-17T06:13:33.585Z,4.70
2023-03-17T06:14:36.241Z,4.70
2023-03-17T06:15:38.660Z,4.70
2023-03-17T06:16:41.259Z,4.70
2023-03-17T06:17:43.920Z,4.70
2023-03-17T06:18:46.266Z,4.70
2023-03-17T06:19:49.530Z,4.80
2023-03-17T06:20:51.960Z,4.80
2023-03-17T06:21:54.401Z,4.80
2023-03-17T06:23:04.513Z,4.80
2023-03-17T06:24:08.186Z,4.80
2023-03-17T06:25:11.111Z,4.80
2023-03-17T06:26:13.429Z,4.80
2023-03-17T06:27:15.829Z,4.80
2023-03-17T06:28:18.590Z,4.90
2023-03-17T06:29:21.706Z,4.90
2023-03-17T06:30:24.009Z,4.90
2023-03-17T06:31:26.626Z,4.90
2023-03-17T06:32:30.689Z,4.90
2023-03-17T06:33:33.414Z,4.90
2023-03-17T06:34:36.021Z,5.00
2023-03-17T06:35:38.783Z,5.00
2023-03-17T06:36:41.544Z,5.00
2023-03-17T06:37:43.935Z,5.00
2023-03-17T06:38:46.362Z,5.00
2023-03-17T06:39:48.661Z,5.10
2023-03-17T06:40:51.643Z,5.10
2023-03-17T06:41:54.342Z,5.20
2023-03-17T06:42:56.671Z,5.20
2023-03-17T06:43:59.104Z,5.20
2023-03-17T06:45:01.462Z,5.20
2023-03-17T06:46:03.887Z,5.30
2023-03-17T06:47:06.665Z,5.30
2023-03-17T06:48:09.328Z,5.30
2023-03-17T06:49:13.555Z,5.40
2023-03-17T06:50:16.308Z,5.40
2023-03-17T06:51:18.615Z,5.50
2023-03-17T06:52:21.268Z,5.50
2023-03-17T06:53:23.639Z,5.60
2023-03-17T06:54:26.001Z,5.60
2023-03-17T06:55:29.020Z,5.70
2023-03-17T06:56:31.593Z,5.70
2023-03-17T06:57:34.048Z,5.70
2023-03-17T06:58:36.617Z,5.80
2023-03-17T06:59:39.132Z,5.80
2023-03-17T07:00:41.839Z,5.80
2023-03-17T07:01:44.393Z,5.90
2023-03-17T07:02:47.412Z,5.90
2023-03-17T07:03:49.818Z,5.90
2023-03-17T07:04:53.488Z,5.90
2023-03-17T07:05:55.869Z,6.00
2023-03-17T07:06:58.272Z,6.00
2023-03-17T07:08:01.081Z,6.00
2023-03-17T07:09:03.902Z,6.00
2023-03-17T07:10:07.085Z,6.10
2023-03-17T07:11:09.920Z,6.10
2023-03-17T07:12:12.374Z,6.10
2023-03-17T07:13:14.785Z,6.10
2023-03-17T07:14:17.144Z,6.20
2023-03-17T07:15:20.847Z,6.20
2023-03-17T07:16:23.749Z,6.20
2023-03-17T07:17:26.178Z,6.20
2023-03-17T07:18:32.111Z,6.20
2023-03-17T07:19:35.176Z,6.30
2023-03-17T07:20:37.746Z,6.20
2023-03-17T07:21:40.060Z,6.30
2023-03-17T07:22:42.882Z,6.30
2023-03-17T07:23:45.234Z,6.40
2023-03-17T07:24:49.221Z,6.50
2023-03-17T07:25:51.656Z,6.50
2023-03-17T07:26:54.050Z,6.60
2023-03-17T07:27:56.753Z,6.70
2023-03-17T07:29:01.413Z,6.80
2023-03-17T07:30:05.210Z,6.90
2023-03-17T07:31:09.554Z,7.00
2023-03-17T07:32:12.087Z,7.10
2023-03-17T07:33:14.972Z,7.20
2023-03-17T07:34:17.891Z,7.20
2023-03-17T07:35:20.430Z,7.30
2023-03-17T07:36:23.069Z,7.40
2023-03-17T07:37:25.414Z,7.50
2023-03-17T07:38:27.749Z,7.50
2023-03-17T07:39:30.054Z,7.60
2023-03-17T07:40:35.196Z,7.60
2023-03-17T07:41:37.882Z,7.60
2023-03-17T07:42:43.630Z,7.70
2023-03-17T07:43:46.143Z,7.70
2023-03-17T07:44:48.491Z,7.60
2023-03-17T07:45:51.385Z,7.70
2023-03-17T07:46:53.937Z,7.70
2023-03-17T07:47:57.694Z,7.70
2023-03-17T07:49:00.033Z,7.70
2023-03-17T07:50:02.778Z,7.70
2023-03-17T07:51:05.660Z,7.70
2023-03-17T07:52:09.481Z,7.70
2023-03-17T07:53:13.933Z,7.80
2023-03-17T07:54:17.160Z,7.80
2023-03-17T07:55:20.934Z,7.90
2023-03-17T07:56:23.363Z,8.00
2023-03-17T07:57:25.728Z,8.10
2023-03-17T07:58:28.097Z,8.20
2023-03-17T07:59:31.241Z,8.30
2023-03-17T08:00:34.737Z,8.30
2023-03-17T08:01:38.090Z,8.40
2023-03-17T08:02:41.184Z,8.50
2023-03-17T08:03:45.228Z,8.60
2023-03-17T08:04:47.683Z,8.60
2023-03-17T08:05:57.713Z,8.70
2023-03-17T08:07:01.427Z,8.70
2023-03-17T08:08:05.322Z,8.70
2023-03-17T08:09:09.218Z,8.70
2023-03-17T08:10:13.268Z,8.70
2023-03-17T08:11:16.866Z,8.80
2023-03-17T08:12:20.134Z,8.80
2023-03-17T08:13:22.370Z,8.80
2023-03-17T08:14:25.164Z,8.90
2023-03-17T08:15:27.596Z,8.90
2023-03-17T08:16:30.792Z,8.90
2023-03-17T08:17:34.379Z,9.00
2023-03-17T08:18:37.151Z,9.10
2023-03-17T08:19:39.583Z,9.10
2023-03-17T08:20:42.092Z,9.20
2023-03-17T08:21:44.402Z,9.20
2023-03-17T08:22:46.749Z,9.30
2023-03-17T08:23:49.082Z,9.30
2023-03-17T08:24:52.069Z,9.40
2023-03-17T08:25:58.750Z,9.50
2023-03-17T08:27:01.636Z,9.50
2023-03-17T08:28:04.643Z,9.60
2023-03-17T08:29:08.110Z,9.70
2023-03-17T08:30:11.686Z,9.90
2023-03-17T08:31:18.046Z,10.00
2023-03-17T08:32:20.737Z,10.10
2023-03-17T08:33:23.594Z,10.20
2023-03-17T08:34:26.398Z,10.30
2023-03-17T08:35:28.975Z,10.40
2023-03-17T08:36:32.041Z,10.40
2023-03-17T08:37:34.364Z,10.50
2023-03-17T08:38:38.080Z,10.50
2023-03-17T08:39:40.485Z,10.50
2023-03-17T08:40:43.026Z,10.50
2023-03-17T08:41:46.346Z,10.50
2023-03-17T08:42:49.423Z,10.50
2023-03-17T08:43:52.468Z,10.50
2023-03-17T08:44:54.729Z,10.50
2023-03-17T08:46:09.554Z,10.50
2023-03-17T08:47:12.146Z,10.50
2023-03-17T08:48:14.547Z,10.50
2023-03-17T08:49:17.163Z,10.50
2023-03-17T08:50:23.521Z,10.50
2023-03-17T08:51:28.841Z,10.50
2023-03-17T08:52:31.713Z,10.50
2023-03-17T08:53:35.135Z,10.50
2023-03-17T08:54:37.586Z,10.50
2023-03-17T08:55:40.038Z,10.60
2023-03-17T08:56:42.595Z,10.60
2023-03-17T08:57:45.472Z,10.60
2023-03-17T08:58:48.676Z,10.70
2023-03-17T08:59:51.482Z,10.70
2023-03-17T09:00:54.041Z,10.80
2023-03-17T09:01:56.993Z,10.80
2023-03-17T09:02:59.268Z,10.80
2023-03-17T09:04:02.868Z,10.80
2023-03-17T09:05:07.300Z,10.90
2023-03-17T09:06:12.475Z,10.90
2023-03-17T09:07:16.080Z,10.90
2023-03-17T09:08:18.464Z,10.90
2023-03-17T09:09:21.019Z,10.90
2023-03-17T09:10:25.585Z,10.90
2023-03-17T09:11:30.159Z,10.90
2023-03-17T09:12:34.188Z,10.90
2023-03-17T09:13:39.147Z,10.90
2023-03-17T09:14:44.127Z,10.90
2023-03-17T09:15:47.265Z,10.90
2023-03-17T09:16:49.674Z,10.90
2023-03-17T09:17:51.919Z,10.90
2023-03-17T09:18:55.186Z,11.00
2023-03-17T09:19:57.486Z,11.00
2023-03-17T09:20:59.932Z,11.00
2023-03-17T09:22:03.550Z,11.00
2023-03-17T09:23:08.167Z,11.00
2023-03-17T09:24:10.851Z,11.00
2023-03-17T09:25:13.222Z,11.10
2023-03-17T09:26:15.683Z,11.10
2023-03-17T09:27:17.937Z,11.10
2023-03-17T09:28:20.503Z,11.20
2023-03-17T09:29:23.477Z,11.20
2023-03-17T09:30:27.109Z,11.20
2023-03-17T09:31:29.616Z,11.30
2023-03-17T09:32:32.423Z,11.40
2023-03-17T09:33:35.059Z,11.40
2023-03-17T09:34:37.551Z,11.40
2023-03-17T09:35:41.252Z,11.40
2023-03-17T09:36:43.606Z,11.40
2023-03-17T09:37:47.180Z,11.50
2023-03-17T09:38:49.559Z,11.50
2023-03-17T09:39:51.991Z,11.50
2023-03-17T09:41:16.426Z,11.50
2023-03-17T09:42:37.350Z,11.60
2023-03-17T09:44:09.802Z,11.60
2023-03-17T09:45:36.954Z,11.60
2023-03-17T09:46:57.677Z,11.60
2023-03-17T09:48:05.912Z,11.60
2023-03-17T09:49:21.006Z,11.70
2023-03-17T09:50:28.154Z,11.70
2023-03-17T09:51:32.581Z,11.80
2023-03-17T09:52:36.347Z,11.80
2023-03-17T09:54:04.664Z,11.80
2023-03-17T09:55:12.440Z,12.00
2023-03-17T09:56:17.073Z,12.00
2023-03-17T09:57:32.361Z,12.10
2023-03-17T09:58:37.271Z,12.10
2023-03-17T09:59:43.914Z,12.10
2023-03-17T10:00:46.702Z,12.20
2023-03-17T10:01:50.710Z,12.20
2023-03-17T10:02:54.124Z,12.20
2023-03-17T10:03:56.421Z,12.30
2023-03-17T10:05:07.212Z,12.30
2023-03-17T10:06:18.726Z,12.40
2023-03-17T10:07:47.195Z,12.40
2023-03-17T10:09:02.821Z,12.50
2023-03-17T10:10:12.138Z,12.50
2023-03-17T10:11:20.330Z,12.50
2023-03-17T10:12:57.420Z,12.50
2023-03-17T10:14:05.105Z,12.50
2023-03-17T10:15:32.580Z,12.60
2023-03-17T10:17:00.491Z,12.60
2023-03-17T10:18:10.167Z,12.60
2023-03-17T10:19:38.582Z,12.70
2023-03-17T10:20:52.036Z,12.70
2023-03-17T10:22:00.639Z,12.70
2023-03-17T10:23:10.628Z,12.80
2023-03-17T10:24:13.409Z,12.80
2023-03-17T10:25:19.933Z,12.90
2023-03-17T10:26:59.127Z,12.90
2023-03-17T10:28:19.464Z,13.00
2023-03-17T10:29:24.045Z,13.10
2023-03-17T10:30:27.453Z,13.20
2023-03-17T10:31:34.642Z,13.20
2023-03-17T10:32:39.931Z,13.30
2023-03-17T10:33:50.643Z,13.30
2023-03-17T10:34:54.304Z,13.40
2023-03-17T10:35:56.630Z,13.40
2023-03-17T10:37:05.946Z,13.50
2023-03-17T10:38:20.838Z,13.50
2023-03-17T10:39:24.779Z,13.60
2023-03-17T10:40:30.557Z,13.60
2023-03-17T10:41:36.276Z,13.60
2023-03-17T10:42:51.926Z,13.70
2023-03-17T10:43:54.779Z,13.70
2023-03-17T10:45:07.505Z,13.70
2023-03-17T10:46:24.524Z,13.80
2023-03-17T10:47:39.690Z,13.80
2023-03-17T10:48:42.019Z,13.90
2023-03-17T10:49:44.382Z,13.90
2023-03-17T10:50:48.588Z,13.90
2023-03-17T10:51:53.961Z,13.90
2023-03-17T10:53:18.466Z,13.90
2023-03-17T10:54:22.894Z,13.90
2023-03-17T10:55:29.817Z,14.00
2023-03-17T10:56:36.891Z,14.00
2023-03-17T10:57:40.970Z,13.90
2023-03-17T10:58:52.086Z,13.90
2023-03-17T10:59:57.041Z,13.90
2023-03-17T11:01:07.878Z,13.90
2023-03-17T11:02:36.054Z,13.90
2023-03-17T11:03:41.996Z,13.90
2023-03-17T11:04:44.346Z,13.90
2023-03-17T11:06:13.799Z,13.90
2023-03-17T11:07:16.235Z,13.90
2023-03-17T11:08:20.605Z,13.90
2023-03-17T11:09:23.436Z,13.90
2023-03-17T11:10:27.420Z,13.90
2023-03-17T11:11:37.942Z,13.90
2023-03-17T11:12:41.124Z,13.90
2023-03-17T11:13:43.422Z,13.90
2023-03-17T11:14:48.178Z,13.90
2023-03-17T11:15:55.430Z,14.00
2023-03-17T11:17:02.192Z,14.10
2023-03-17T11:18:51.579Z,14.10
2023-03-17T11:20:05.841Z,14.10
2023-03-17T11:21:23.347Z,14.20
2023-03-17T11:23:10.846Z,14.10
2023-03-17T11:24:20.997Z,14.20
2023-03-17T11:25:24.780Z,14.20
2023-03-17T11:26:45.355Z,14.20
2023-03-17T11:28:01.416Z,14.20
2023-03-17T11:29:37.317Z,14.30
2023-03-17T11:30:47.859Z,14.30
2023-03-17T11:31:59.755Z,14.40
2023-03-17T11:33:10.417Z,14.50
2023-03-17T11:34:30.731Z,14.50
2023-03-17T11:35:41.492Z,14.60
2023-03-17T11:37:28.322Z,14.70
2023-03-17T11:38:33.096Z,14.80
2023-03-17T11:39:48.587Z,14.80
2023-03-17T11:41:25.380Z,14.90
2023-03-17T11:42:49.543Z,14.90
2023-03-17T11:44:21.166Z,15.00
2023-03-17T11:45:27.417Z,15.00
2023-03-17T11:46:51.296Z,15.00
2023-03-17T11:48:17.904Z,15.10
2023-03-17T11:49:24.284Z,15.20
2023-03-17T11:50:34.517Z,15.20
2023-03-17T11:52:00.545Z,15.20
2023-03-17T11:53:05.961Z,15.20
2023-03-17T11:54:23.994Z,15.20
2023-03-17T11:55:39.757Z,15.20
2023-03-17T11:56:51.130Z,15.30
2023-03-17T11:57:58.190Z,15.30
2023-03-17T11:59:03.902Z,15.30
2023-03-17T12:00:50.748Z,15.30
2023-03-17T12:02:22.502Z,15.30
2023-03-17T12:03:46.225Z,15.40
2023-03-17T12:04:53.290Z,15.40
2023-03-17T12:06:00.614Z,15.40
2023-03-17T12:07:20.654Z,15.40
2023-03-17T12:08:45.635Z,15.40
2023-03-17T12:09:52.949Z,15.40
2023-03-17T12:10:59.202Z,15.40
2023-03-17T12:12:03.962Z,15.50
2023-03-17T12:13:33.188Z,15.50
2023-03-17T12:14:40.235Z,15.50
2023-03-17T12:16:04.305Z,15.50
2023-03-17T12:17:18.567Z,15.40
2023-03-17T12:18:43.148Z,15.50
2023-03-17T12:19:58.465Z,15.50
2023-03-17T12:21:07.709Z,15.40
2023-03-17T12:22:39.263Z,15.40
2023-03-17T12:23:52.510Z,15.30
2023-03-17T12:25:16.512Z,15.30
2023-03-17T12:26:37.731Z,15.20
2023-03-17T12:28:06.979Z,15.20
2023-03-17T12:29:18.270Z,15.20
2023-03-17T12:30:38.734Z,15.10
2023-03-17T12:31:57.144Z,15.10
2023-03-17T12:33:10.837Z,15.10
2023-03-17T12:34:37.817Z,15.00
2023-03-17T12:35:40.650Z,15.00
2023-03-17T12:36:44.341Z,15.00
2023-03-17T12:37:46.744Z,15.00
2023-03-17T12:39:06.697Z,15.00
2023-03-17T12:40:24.077Z,15.10
2023-03-17T12:41:56.883Z,15.10
2023-03-17T12:43:10.497Z,15.20
2023-03-17T12:44:43.002Z,15.20
2023-03-17T12:46:09.488Z,15.20
2023-03-17T12:47:30.199Z,15.20
2023-03-17T12:49:10.819Z,15.30
2023-03-17T12:50:30.977Z,15.30
2023-03-17T12:51:52.147Z,15.30
2023-03-17T12:53:02.424Z,15.30
2023-03-17T12:54:05.121Z,15.40
2023-03-17T12:55:14.249Z,15.40
2023-03-17T12:56:31.878Z,15.50
2023-03-17T12:57:47.243Z,15.50
2023-03-17T12:58:51.249Z,15.50
2023-03-17T13:00:05.732Z,15.50
2023-03-17T13:01:36.083Z,15.60
2023-03-17T13:02:39.587Z,15.60
2023-03-17T13:04:06.655Z,15.60
2023-03-17T13:05:14.204Z,15.60
2023-03-17T13:06:21.294Z,15.60
2023-03-17T13:07:39.779Z,15.60
2023-03-17T13:08:43.040Z,15.60
2023-03-17T13:09:56.588Z,15.70
2023-03-17T13:11:33.499Z,15.70
2023-03-17T13:12:42.162Z,15.70
2023-03-17T13:13:52.315Z,15.70
2023-03-17T13:14:54.871Z,15.70
2023-03-17T13:15:58.833Z,15.80
2023-03-17T13:17:18.728Z,15.80
2023-03-17T13:18:21.022Z,15.80
2023-03-17T13:19:32.615Z,15.90
2023-03-17T13:20:43.577Z,15.90
2023-03-17T13:21:52.184Z,15.90
2023-03-17T13:23:16.302Z,16.00
2023-03-17T13:24:22.492Z,16.00
2023-03-17T13:25:53.876Z,15.90
2023-03-17T13:27:01.768Z,16.00
2023-03-17T13:28:13.216Z,16.00
2023-03-17T13:29:33.552Z,16.00
2023-03-17T13:30:36.472Z,16.00
2023-03-17T13:31:39.400Z,16.00
2023-03-17T13:32:42.799Z,16.00
2023-03-17T13:33:49.814Z,16.00
2023-03-17T13:35:16.130Z,16.00
2023-03-17T13:36:33.691Z,15.90
2023-03-17T13:37:49.940Z,15.90
2023-03-17T13:39:19.178Z,15.90
2023-03-17T13:40:26.127Z,15.90
2023-03-17T13:41:43.614Z,15.90
2023-03-17T13:43:07.400Z,15.90
2023-03-17T13:44:22.588Z,15.90
2023-03-17T13:45:38.708Z,15.90
2023-03-17T13:46:46.840Z,15.90
2023-03-17T13:47:51.345Z,16.00
2023-03-17T13:48:55.433Z,16.00
2023-03-17T13:50:14.920Z,16.00
2023-03-17T13:51:27.358Z,16.00
2023-03-17T13:52:41.170Z,16.10
2023-03-17T13:53:55.469Z,16.10
2023-03-17T13:55:05.380Z,16.20
2023-03-17T13:56:21.701Z,16.20
2023-03-17T13:57:37.642Z,16.20
2023-03-17T13:59:03.013Z,16.20
2023-03-17T14:00:27.704Z,16.30
2023-03-17T14:01:57.816Z,16.20
2023-03-17T14:03:32.564Z,16.20
2023-03-17T14:04:45.316Z,16.10
2023-03-17T14:05:50.687Z,16.10
2023-03-17T14:06:59.203Z,16.00
2023-03-17T14:08:03.795Z,16.00
2023-03-17T14:09:39.484Z,16.00
2023-03-17T14:10:44.024Z,16.00
2023-03-17T14:11:47.815Z,16.00
2023-03-17T14:12:59.023Z,16.00
2023-03-17T14:14:31.174Z,15.90
2023-03-17T14:15:46.296Z,16.00
2023-03-17T14:17:00.459Z,16.00
2023-03-17T14:18:17.099Z,15.90
2023-03-17T14:19:25.802Z,15.90
2023-03-17T14:20:28.678Z,15.90
2023-03-17T14:21:33.696Z,15.90
2023-03-17T14:22:45.567Z,15.90
2023-03-17T14:24:04.298Z,15.80
2023-03-17T14:25:08.513Z,15.80
2023-03-17T14:26:11.924Z,15.70
2023-03-17T14:27:15.149Z,15.70
2023-03-17T14:28:25.565Z,15.70
2023-03-17T14:29:32.140Z,15.70
2023-03-17T14:30:36.381Z,15.70
2023-03-17T14:31:38.680Z,15.70
2023-03-17T14:32:45.473Z,15.70
2023-03-17T14:33:47.836Z,15.60
2023-03-17T14:34:58.287Z,15.60